CCA351 VABB-ZPPP
Flight info
| Callsign | CCA351 |
|---|---|
| Flight time | N/A |
| Altitude | FL390 |
| Route | ANOL2A NONEN Q19 KAMLO W108 NNP Z14 OGUNA W160 JRS J46 CEA B465 CTG A599 GULOT GUL3L |
| Aircraft | B744/H-CDGHLRTWZ/CB1D1 |
Departure
| Time | N/A |
|---|---|
| Airport | Chhatrapati Shivaji Maharaj International Airport (VABB) |
Arrival
| Time | 2026-05-07 14:17 |
|---|---|
| Airport | Kunming Changshui International Airport (ZPPP) |
| Time | Latitude | Longitude | Altitude | Speed | Heading |
|---|---|---|---|---|---|
| 2026-05-07 12:16 | 22.27211 | 86.11588 | 38777 ft | 529 kts | 80° |
| 2026-05-07 12:16 | 22.27860 | 86.15481 | 38777 ft | 529 kts | 80° |
| 2026-05-07 12:17 | 22.29266 | 86.23267 | 38777 ft | 529 kts | 79° |
| 2026-05-07 12:17 | 22.30667 | 86.31042 | 38780 ft | 529 kts | 79° |
| 2026-05-07 12:18 | 22.32060 | 86.38839 | 38781 ft | 529 kts | 79° |
| 2026-05-07 12:18 | 22.33366 | 86.46176 | 38785 ft | 529 kts | 80° |
| 2026-05-07 12:19 | 22.34762 | 86.53952 | 38784 ft | 529 kts | 79° |
| 2026-05-07 12:19 | 22.36168 | 86.61728 | 38785 ft | 529 kts | 79° |
| 2026-05-07 12:20 | 22.37559 | 86.69517 | 38786 ft | 529 kts | 79° |
| 2026-05-07 12:20 | 22.38942 | 86.77313 | 38783 ft | 529 kts | 79° |
| 2026-05-07 12:21 | 22.40319 | 86.85104 | 38784 ft | 529 kts | 79° |
| 2026-05-07 12:21 | 22.41693 | 86.92900 | 38779 ft | 530 kts | 79° |
| 2026-05-07 12:22 | 22.43066 | 87.00718 | 38764 ft | 532 kts | 79° |
| 2026-05-07 12:22 | 22.44441 | 87.08570 | 38763 ft | 533 kts | 79° |
| 2026-05-07 12:23 | 22.45811 | 87.16416 | 38764 ft | 532 kts | 79° |
| 2026-05-07 12:23 | 22.47178 | 87.24264 | 38759 ft | 533 kts | 79° |
| 2026-05-07 12:24 | 22.48541 | 87.32121 | 38760 ft | 533 kts | 79° |
| 2026-05-07 12:24 | 22.49901 | 87.39977 | 38760 ft | 533 kts | 79° |
| 2026-05-07 12:25 | 22.51255 | 87.47824 | 38763 ft | 531 kts | 80° |
| 2026-05-07 12:25 | 22.52603 | 87.55662 | 38765 ft | 531 kts | 80° |
| 2026-05-07 12:26 | 22.53949 | 87.63508 | 38764 ft | 531 kts | 80° |
| 2026-05-07 12:26 | 22.55290 | 87.71350 | 38765 ft | 531 kts | 80° |
| 2026-05-07 12:27 | 22.56626 | 87.79191 | 38764 ft | 531 kts | 80° |
| 2026-05-07 12:27 | 22.57961 | 87.87042 | 38763 ft | 531 kts | 80° |
| 2026-05-07 12:28 | 22.59290 | 87.94890 | 38773 ft | 530 kts | 80° |
| 2026-05-07 12:28 | 22.60611 | 88.02708 | 38775 ft | 529 kts | 80° |
| 2026-05-07 12:29 | 22.61927 | 88.10519 | 38777 ft | 528 kts | 80° |
| 2026-05-07 12:29 | 22.63253 | 88.18300 | 38782 ft | 526 kts | 81° |
| 2026-05-07 12:30 | 22.64544 | 88.26048 | 38777 ft | 524 kts | 81° |
| 2026-05-07 12:30 | 22.65835 | 88.33830 | 38785 ft | 528 kts | 80° |
| 2026-05-07 12:31 | 22.67103 | 88.41642 | 38772 ft | 527 kts | 84° |
| 2026-05-07 12:31 | 22.66875 | 88.49523 | 38767 ft | 525 kts | 98° |
| 2026-05-07 12:32 | 22.65665 | 88.57286 | 38781 ft | 522 kts | 103° |
| 2026-05-07 12:32 | 22.64315 | 88.65015 | 38777 ft | 526 kts | 101° |
| 2026-05-07 12:33 | 22.62352 | 88.76687 | 38782 ft | 526 kts | 101° |
| 2026-05-07 12:33 | 22.61041 | 88.84455 | 38793 ft | 526 kts | 102° |
| 2026-05-07 12:34 | 22.59726 | 88.92245 | 38785 ft | 527 kts | 102° |
| 2026-05-07 12:34 | 22.58656 | 89.00082 | 38781 ft | 529 kts | 98° |
| 2026-05-07 12:35 | 22.57843 | 89.07968 | 38774 ft | 527 kts | 98° |
| 2026-05-07 12:35 | 22.56995 | 89.15802 | 38773 ft | 527 kts | 98° |
| 2026-05-07 12:36 | 22.56119 | 89.23701 | 38770 ft | 530 kts | 97° |
| 2026-05-07 12:36 | 22.55233 | 89.31607 | 38773 ft | 530 kts | 98° |
| 2026-05-07 12:37 | 22.54381 | 89.39485 | 38771 ft | 528 kts | 98° |
| 2026-05-07 12:37 | 22.53507 | 89.47369 | 38772 ft | 531 kts | 97° |
| 2026-05-07 12:38 | 22.52618 | 89.55293 | 38782 ft | 530 kts | 98° |
| 2026-05-07 12:38 | 22.51728 | 89.63165 | 38782 ft | 528 kts | 98° |
| 2026-05-07 12:39 | 22.50832 | 89.71050 | 38774 ft | 531 kts | 98° |
| 2026-05-07 12:39 | 22.49929 | 89.78959 | 38784 ft | 531 kts | 98° |
| 2026-05-07 12:40 | 22.49030 | 89.86791 | 38804 ft | 524 kts | 99° |
| 2026-05-07 12:40 | 22.48131 | 89.94602 | 38795 ft | 526 kts | 98° |
| 2026-05-07 12:41 | 22.47224 | 90.02440 | 38812 ft | 526 kts | 98° |
| 2026-05-07 12:41 | 22.46316 | 90.10253 | 38816 ft | 525 kts | 98° |
| 2026-05-07 12:42 | 22.45405 | 90.18065 | 38812 ft | 524 kts | 99° |
| 2026-05-07 12:42 | 22.44494 | 90.25840 | 38819 ft | 520 kts | 99° |
| 2026-05-07 12:43 | 22.43584 | 90.33569 | 38816 ft | 518 kts | 99° |
| 2026-05-07 12:43 | 22.42672 | 90.41293 | 38811 ft | 522 kts | 99° |
| 2026-05-07 12:44 | 22.41750 | 90.49062 | 38820 ft | 521 kts | 99° |
| 2026-05-07 12:44 | 22.40828 | 90.56799 | 38816 ft | 518 kts | 99° |
| 2026-05-07 12:45 | 22.39907 | 90.64499 | 38812 ft | 519 kts | 99° |
| 2026-05-07 12:45 | 22.38978 | 90.72235 | 38816 ft | 520 kts | 99° |
| 2026-05-07 12:46 | 22.38048 | 90.79943 | 38816 ft | 518 kts | 99° |
| 2026-05-07 12:46 | 22.37116 | 90.87647 | 38813 ft | 520 kts | 99° |
| 2026-05-07 12:47 | 22.36176 | 90.95374 | 38815 ft | 519 kts | 99° |
| 2026-05-07 12:47 | 22.35237 | 91.03070 | 38816 ft | 516 kts | 99° |
| 2026-05-07 12:48 | 22.34315 | 91.10755 | 38814 ft | 519 kts | 99° |
| 2026-05-07 12:48 | 22.33403 | 91.18136 | 38814 ft | 520 kts | 99° |
| 2026-05-07 12:49 | 22.32443 | 91.25846 | 38816 ft | 519 kts | 99° |
| 2026-05-07 12:49 | 22.31483 | 91.33543 | 38816 ft | 518 kts | 99° |
| 2026-05-07 12:50 | 22.30540 | 91.41251 | 38817 ft | 519 kts | 99° |
| 2026-05-07 12:50 | 22.29668 | 91.48971 | 38817 ft | 519 kts | 99° |
| 2026-05-07 12:51 | 22.28806 | 91.56685 | 38817 ft | 519 kts | 99° |
| 2026-05-07 12:51 | 22.27910 | 91.64414 | 38818 ft | 520 kts | 99° |
| 2026-05-07 12:52 | 22.27008 | 91.72151 | 38817 ft | 520 kts | 99° |
| 2026-05-07 12:52 | 22.26113 | 91.79893 | 38815 ft | 521 kts | 97° |
| 2026-05-07 12:53 | 22.26344 | 91.87682 | 38820 ft | 523 kts | 85° |
| 2026-05-07 12:53 | 22.27480 | 91.95440 | 38819 ft | 525 kts | 81° |
| 2026-05-07 12:54 | 22.28639 | 92.03208 | 38818 ft | 525 kts | 83° |
| 2026-05-07 12:54 | 22.29714 | 92.10973 | 38819 ft | 525 kts | 83° |
| 2026-05-07 12:55 | 22.30782 | 92.18751 | 38821 ft | 524 kts | 83° |
| 2026-05-07 12:55 | 22.31849 | 92.26518 | 38820 ft | 524 kts | 83° |
| 2026-05-07 12:56 | 22.32911 | 92.34293 | 38821 ft | 524 kts | 83° |
| 2026-05-07 12:56 | 22.33976 | 92.42060 | 38821 ft | 524 kts | 83° |
| 2026-05-07 12:57 | 22.35050 | 92.49814 | 38822 ft | 523 kts | 83° |
| 2026-05-07 12:57 | 22.36098 | 92.57583 | 38824 ft | 524 kts | 83° |
| 2026-05-07 12:58 | 22.37140 | 92.65346 | 38819 ft | 523 kts | 83° |
| 2026-05-07 12:58 | 22.38182 | 92.73108 | 38822 ft | 523 kts | 83° |
| 2026-05-07 12:59 | 22.39225 | 92.80876 | 38824 ft | 524 kts | 83° |
| 2026-05-07 12:59 | 22.40262 | 92.88633 | 38815 ft | 523 kts | 83° |
| 2026-05-07 13:00 | 22.41292 | 92.96395 | 38818 ft | 523 kts | 83° |
| 2026-05-07 13:00 | 22.42315 | 93.04142 | 38817 ft | 524 kts | 83° |
| 2026-05-07 13:01 | 22.43341 | 93.11927 | 38808 ft | 523 kts | 83° |
| 2026-05-07 13:01 | 22.44399 | 93.19700 | 38807 ft | 524 kts | 83° |
| 2026-05-07 13:02 | 22.45440 | 93.27487 | 38805 ft | 525 kts | 83° |
| 2026-05-07 13:02 | 22.46469 | 93.35274 | 38795 ft | 523 kts | 83° |
| 2026-05-07 13:03 | 22.47490 | 93.43043 | 38795 ft | 523 kts | 83° |
| 2026-05-07 13:03 | 22.48508 | 93.50832 | 38795 ft | 525 kts | 83° |
| 2026-05-07 13:04 | 22.49522 | 93.58621 | 38793 ft | 524 kts | 83° |
| 2026-05-07 13:04 | 22.50531 | 93.66401 | 38788 ft | 524 kts | 83° |
| 2026-05-07 13:05 | 22.51541 | 93.74217 | 38785 ft | 526 kts | 83° |
| 2026-05-07 13:05 | 22.52546 | 93.82031 | 38781 ft | 525 kts | 83° |
| 2026-05-07 13:06 | 22.53547 | 93.89835 | 38775 ft | 525 kts | 83° |
| 2026-05-07 13:06 | 22.54544 | 93.97643 | 38774 ft | 526 kts | 83° |
| 2026-05-07 13:07 | 22.55538 | 94.05461 | 38778 ft | 526 kts | 83° |
| 2026-05-07 13:07 | 22.56530 | 94.13292 | 38774 ft | 526 kts | 83° |
| 2026-05-07 13:08 | 22.57519 | 94.21130 | 38773 ft | 527 kts | 83° |
| 2026-05-07 13:08 | 22.58503 | 94.28960 | 38775 ft | 526 kts | 83° |
| 2026-05-07 13:09 | 22.59482 | 94.36783 | 38772 ft | 526 kts | 83° |
| 2026-05-07 13:09 | 22.60457 | 94.44604 | 38770 ft | 526 kts | 83° |
| 2026-05-07 13:10 | 22.61429 | 94.52433 | 38769 ft | 525 kts | 83° |
| 2026-05-07 13:10 | 22.62395 | 94.60246 | 38768 ft | 525 kts | 83° |
| 2026-05-07 13:11 | 22.63357 | 94.68061 | 38767 ft | 525 kts | 83° |
| 2026-05-07 13:11 | 22.64316 | 94.75874 | 38763 ft | 524 kts | 83° |
| 2026-05-07 13:12 | 22.65268 | 94.83668 | 38763 ft | 524 kts | 83° |
| 2026-05-07 13:12 | 22.66217 | 94.91469 | 38764 ft | 524 kts | 83° |
| 2026-05-07 13:13 | 22.67161 | 94.99266 | 38760 ft | 522 kts | 84° |
| 2026-05-07 13:13 | 22.68101 | 95.07056 | 38763 ft | 523 kts | 84° |
| 2026-05-07 13:14 | 22.69039 | 95.14864 | 38763 ft | 525 kts | 84° |
| 2026-05-07 13:14 | 22.69973 | 95.22669 | 38759 ft | 523 kts | 84° |
| 2026-05-07 13:15 | 22.70901 | 95.30457 | 38758 ft | 522 kts | 84° |
| 2026-05-07 13:15 | 22.71826 | 95.38250 | 38759 ft | 523 kts | 84° |
| 2026-05-07 13:16 | 22.72747 | 95.46049 | 38757 ft | 522 kts | 84° |
| 2026-05-07 13:16 | 22.73663 | 95.53831 | 38762 ft | 522 kts | 84° |
| 2026-05-07 13:17 | 22.74575 | 95.61623 | 38764 ft | 522 kts | 84° |
| 2026-05-07 13:17 | 22.75484 | 95.69413 | 38758 ft | 523 kts | 84° |
| 2026-05-07 13:18 | 22.76390 | 95.77212 | 38764 ft | 523 kts | 84° |
| 2026-05-07 13:18 | 22.77255 | 95.84696 | 38779 ft | 523 kts | 84° |
| 2026-05-07 13:19 | 22.78153 | 95.92486 | 38796 ft | 522 kts | 84° |
| 2026-05-07 13:19 | 22.79045 | 96.00267 | 38806 ft | 521 kts | 84° |
| 2026-05-07 13:20 | 22.79934 | 96.08053 | 38812 ft | 522 kts | 84° |
| 2026-05-07 13:20 | 22.80819 | 96.15839 | 38817 ft | 522 kts | 84° |
| 2026-05-07 13:21 | 22.81699 | 96.23621 | 38825 ft | 521 kts | 84° |
| 2026-05-07 13:21 | 22.82576 | 96.31407 | 38830 ft | 521 kts | 84° |
| 2026-05-07 13:22 | 22.83450 | 96.39196 | 38833 ft | 521 kts | 84° |
| 2026-05-07 13:22 | 22.84319 | 96.46975 | 38843 ft | 521 kts | 84° |
| 2026-05-07 13:23 | 22.85184 | 96.54763 | 38849 ft | 521 kts | 84° |
| 2026-05-07 13:23 | 22.86045 | 96.62536 | 38859 ft | 521 kts | 84° |
| 2026-05-07 13:24 | 22.86903 | 96.70331 | 38866 ft | 521 kts | 84° |
| 2026-05-07 13:24 | 22.87758 | 96.78123 | 38870 ft | 522 kts | 84° |
| 2026-05-07 13:25 | 22.88610 | 96.85925 | 38858 ft | 521 kts | 84° |
| 2026-05-07 13:25 | 22.89455 | 96.93708 | 38861 ft | 521 kts | 84° |
| 2026-05-07 13:26 | 22.90298 | 97.01504 | 38864 ft | 522 kts | 84° |
| 2026-05-07 13:26 | 22.91139 | 97.09307 | 38850 ft | 522 kts | 84° |
| 2026-05-07 13:27 | 22.91975 | 97.17109 | 38852 ft | 522 kts | 84° |
| 2026-05-07 13:27 | 22.92809 | 97.24931 | 38855 ft | 523 kts | 84° |
| 2026-05-07 13:28 | 22.93640 | 97.32755 | 38842 ft | 523 kts | 84° |
| 2026-05-07 13:28 | 22.94467 | 97.40577 | 38858 ft | 523 kts | 84° |
| 2026-05-07 13:29 | 22.95309 | 97.48404 | 38885 ft | 524 kts | 84° |
| 2026-05-07 13:29 | 22.96124 | 97.56234 | 38979 ft | 522 kts | 85° |
| 2026-05-07 13:30 | 22.96929 | 97.64041 | 38993 ft | 522 kts | 85° |
| 2026-05-07 13:30 | 22.97733 | 97.71851 | 38992 ft | 522 kts | 84° |
| 2026-05-07 13:31 | 22.99391 | 97.79491 | 38996 ft | 523 kts | 72° |
| 2026-05-07 13:31 | 23.01906 | 97.86882 | 38992 ft | 524 kts | 69° |
| 2026-05-07 13:32 | 23.04509 | 97.94259 | 38991 ft | 524 kts | 70° |
| 2026-05-07 13:32 | 23.07053 | 98.01659 | 38991 ft | 524 kts | 70° |
| 2026-05-07 13:33 | 23.09575 | 98.09060 | 38990 ft | 524 kts | 70° |
| 2026-05-07 13:33 | 23.12119 | 98.16460 | 38987 ft | 524 kts | 70° |
| 2026-05-07 13:34 | 23.15910 | 98.27575 | 38983 ft | 525 kts | 70° |
| 2026-05-07 13:35 | 23.18432 | 98.35007 | 38981 ft | 525 kts | 70° |
| 2026-05-07 13:35 | 23.20947 | 98.42436 | 38977 ft | 525 kts | 70° |
| 2026-05-07 13:36 | 23.23460 | 98.49872 | 38975 ft | 525 kts | 70° |
| 2026-05-07 13:36 | 23.25968 | 98.57308 | 38972 ft | 525 kts | 70° |
| 2026-05-07 13:37 | 23.28493 | 98.64748 | 38971 ft | 525 kts | 70° |
| 2026-05-07 13:37 | 23.30992 | 98.72192 | 38967 ft | 525 kts | 70° |
| 2026-05-07 13:38 | 23.33484 | 98.79645 | 38967 ft | 525 kts | 70° |
| 2026-05-07 13:38 | 23.35973 | 98.87097 | 38964 ft | 525 kts | 70° |
| 2026-05-07 13:39 | 23.38441 | 98.94573 | 38966 ft | 525 kts | 71° |
| 2026-05-07 13:39 | 23.40770 | 99.02092 | 38960 ft | 525 kts | 72° |
| 2026-05-07 13:40 | 23.43121 | 99.09612 | 38958 ft | 526 kts | 71° |
| 2026-05-07 13:40 | 23.45482 | 99.17127 | 38960 ft | 526 kts | 71° |
| 2026-05-07 13:41 | 23.47819 | 99.24650 | 38960 ft | 525 kts | 71° |
| 2026-05-07 13:41 | 23.50151 | 99.32177 | 38957 ft | 526 kts | 72° |
| 2026-05-07 13:42 | 23.52528 | 99.39682 | 38961 ft | 525 kts | 68° |
| 2026-05-07 13:42 | 23.55775 | 99.46785 | 38968 ft | 524 kts | 60° |
| 2026-05-07 13:43 | 23.59439 | 99.53636 | 38964 ft | 525 kts | 59° |
| 2026-05-07 13:43 | 23.63072 | 99.60514 | 38963 ft | 525 kts | 60° |
| 2026-05-07 13:44 | 23.66674 | 99.67419 | 38963 ft | 524 kts | 60° |
| 2026-05-07 13:44 | 23.70265 | 99.74326 | 38964 ft | 524 kts | 59° |
| 2026-05-07 13:45 | 23.73872 | 99.81216 | 38962 ft | 524 kts | 60° |
| 2026-05-07 13:45 | 23.77462 | 99.88121 | 38962 ft | 524 kts | 60° |
| 2026-05-07 13:46 | 23.81049 | 99.95041 | 38960 ft | 524 kts | 60° |
| 2026-05-07 13:46 | 23.84628 | 100.01959 | 38959 ft | 524 kts | 60° |
| 2026-05-07 13:47 | 23.88202 | 100.08880 | 38960 ft | 524 kts | 60° |
| 2026-05-07 13:47 | 23.91774 | 100.15804 | 38960 ft | 524 kts | 60° |
| 2026-05-07 13:48 | 23.95344 | 100.22736 | 38970 ft | 524 kts | 60° |
| 2026-05-07 13:48 | 23.98754 | 100.29329 | 38978 ft | 525 kts | 60° |
| 2026-05-07 13:49 | 24.02323 | 100.36278 | 39042 ft | 528 kts | 60° |
| 2026-05-07 13:49 | 24.05908 | 100.43284 | 39052 ft | 529 kts | 60° |
| 2026-05-07 13:50 | 24.09488 | 100.50291 | 39067 ft | 528 kts | 59° |
| 2026-05-07 13:50 | 24.13054 | 100.57284 | 38819 ft | 524 kts | 60° |
| 2026-05-07 13:50 | 24.14788 | 100.60744 | 38419 ft | 516 kts | 60° |
| 2026-05-07 13:51 | 24.16495 | 100.64155 | 38018 ft | 508 kts | 60° |
| 2026-05-07 13:51 | 24.18179 | 100.67525 | 37616 ft | 502 kts | 60° |
| 2026-05-07 13:51 | 24.19838 | 100.70846 | 37202 ft | 496 kts | 60° |
| 2026-05-07 13:51 | 24.21479 | 100.74133 | 36751 ft | 491 kts | 60° |
| 2026-05-07 13:52 | 24.23108 | 100.77397 | 36300 ft | 486 kts | 60° |
| 2026-05-07 13:52 | 24.24716 | 100.80622 | 35849 ft | 482 kts | 60° |
| 2026-05-07 13:52 | 24.26311 | 100.83825 | 35399 ft | 477 kts | 59° |
| 2026-05-07 13:52 | 24.27892 | 100.86998 | 34948 ft | 473 kts | 59° |
| 2026-05-07 13:53 | 24.29463 | 100.90138 | 34497 ft | 469 kts | 59° |
| 2026-05-07 13:53 | 24.31030 | 100.93251 | 34045 ft | 465 kts | 59° |
| 2026-05-07 13:53 | 24.32577 | 100.96337 | 33593 ft | 461 kts | 59° |
| 2026-05-07 13:53 | 24.34109 | 100.99404 | 33141 ft | 457 kts | 59° |
| 2026-05-07 13:54 | 24.35626 | 101.02447 | 32687 ft | 454 kts | 59° |
| 2026-05-07 13:54 | 24.37131 | 101.05471 | 32237 ft | 451 kts | 59° |
| 2026-05-07 13:54 | 24.38625 | 101.08476 | 31785 ft | 448 kts | 58° |
| 2026-05-07 13:54 | 24.40103 | 101.11450 | 31335 ft | 444 kts | 59° |
| 2026-05-07 13:55 | 24.41575 | 101.14414 | 30885 ft | 441 kts | 58° |
| 2026-05-07 13:55 | 24.43028 | 101.17342 | 30435 ft | 437 kts | 59° |
| 2026-05-07 13:55 | 24.44474 | 101.20258 | 29984 ft | 434 kts | 59° |
| 2026-05-07 13:55 | 24.45907 | 101.23150 | 29535 ft | 431 kts | 59° |
| 2026-05-07 13:56 | 24.47336 | 101.26026 | 29085 ft | 428 kts | 58° |
| 2026-05-07 13:56 | 24.48760 | 101.28875 | 28635 ft | 425 kts | 59° |
| 2026-05-07 13:56 | 24.50164 | 101.31706 | 28185 ft | 421 kts | 59° |
| 2026-05-07 13:56 | 24.51552 | 101.34515 | 27735 ft | 418 kts | 59° |
| 2026-05-07 13:57 | 24.52929 | 101.37308 | 27284 ft | 415 kts | 59° |
| 2026-05-07 13:57 | 24.54293 | 101.40077 | 26834 ft | 411 kts | 59° |
| 2026-05-07 13:57 | 24.55646 | 101.42826 | 26384 ft | 408 kts | 59° |
| 2026-05-07 13:57 | 24.56986 | 101.45550 | 25935 ft | 405 kts | 59° |
| 2026-05-07 13:58 | 24.58317 | 101.48256 | 25485 ft | 402 kts | 59° |
| 2026-05-07 13:58 | 24.59639 | 101.50946 | 25035 ft | 399 kts | 59° |
| 2026-05-07 13:58 | 24.60948 | 101.53608 | 24585 ft | 396 kts | 60° |
| 2026-05-07 13:58 | 24.61958 | 101.56394 | 24170 ft | 393 kts | 75° |
| 2026-05-07 13:59 | 24.62462 | 101.59338 | 23723 ft | 393 kts | 82° |
| 2026-05-07 13:59 | 24.62742 | 101.62311 | 23276 ft | 391 kts | 86° |
| 2026-05-07 13:59 | 24.62896 | 101.65284 | 22826 ft | 389 kts | 89° |
| 2026-05-07 13:59 | 24.62992 | 101.68240 | 22376 ft | 387 kts | 89° |
| 2026-05-07 14:00 | 24.63092 | 101.71178 | 21926 ft | 384 kts | 89° |
| 2026-05-07 14:00 | 24.63204 | 101.74093 | 21477 ft | 382 kts | 89° |
| 2026-05-07 14:00 | 24.63323 | 101.76992 | 21027 ft | 379 kts | 89° |
| 2026-05-07 14:00 | 24.63447 | 101.79877 | 20577 ft | 377 kts | 89° |
| 2026-05-07 14:01 | 24.63573 | 101.82739 | 20128 ft | 375 kts | 89° |
| 2026-05-07 14:01 | 24.63700 | 101.85589 | 19678 ft | 373 kts | 89° |
| 2026-05-07 14:01 | 24.63827 | 101.88426 | 19228 ft | 371 kts | 90° |
| 2026-05-07 14:01 | 24.63953 | 101.91242 | 18779 ft | 369 kts | 90° |
| 2026-05-07 14:02 | 24.64080 | 101.94051 | 18330 ft | 367 kts | 89° |
| 2026-05-07 14:02 | 24.64220 | 101.96843 | 17880 ft | 366 kts | 89° |
| 2026-05-07 14:02 | 24.64349 | 101.99434 | 17461 ft | 365 kts | 89° |
| 2026-05-07 14:02 | 24.64481 | 102.02205 | 17011 ft | 363 kts | 89° |
| 2026-05-07 14:03 | 24.64611 | 102.04951 | 16654 ft | 358 kts | 89° |
| 2026-05-07 14:03 | 24.64735 | 102.07655 | 16351 ft | 352 kts | 89° |
| 2026-05-07 14:03 | 24.64857 | 102.10316 | 16046 ft | 347 kts | 89° |
| 2026-05-07 14:03 | 24.64977 | 102.12945 | 15747 ft | 344 kts | 89° |
| 2026-05-07 14:04 | 24.65094 | 102.15559 | 15448 ft | 343 kts | 89° |
| 2026-05-07 14:04 | 24.65211 | 102.18168 | 15146 ft | 341 kts | 89° |
| 2026-05-07 14:04 | 24.65326 | 102.20756 | 14848 ft | 339 kts | 89° |
| 2026-05-07 14:04 | 24.65453 | 102.23333 | 14547 ft | 337 kts | 89° |
| 2026-05-07 14:05 | 24.65574 | 102.25893 | 14248 ft | 335 kts | 89° |
| 2026-05-07 14:05 | 24.65690 | 102.28444 | 13947 ft | 334 kts | 89° |
| 2026-05-07 14:05 | 24.65800 | 102.30977 | 13648 ft | 332 kts | 89° |
| 2026-05-07 14:05 | 24.65910 | 102.33501 | 13348 ft | 330 kts | 89° |
| 2026-05-07 14:06 | 24.66016 | 102.36010 | 13050 ft | 329 kts | 89° |
| 2026-05-07 14:06 | 24.66121 | 102.38503 | 12750 ft | 327 kts | 89° |
| 2026-05-07 14:06 | 24.66226 | 102.40992 | 12450 ft | 325 kts | 89° |
| 2026-05-07 14:06 | 24.66330 | 102.43464 | 12150 ft | 323 kts | 89° |
| 2026-05-07 14:07 | 24.66432 | 102.45921 | 11850 ft | 322 kts | 89° |
| 2026-05-07 14:07 | 24.66534 | 102.48359 | 11551 ft | 318 kts | 89° |
| 2026-05-07 14:07 | 24.66634 | 102.50753 | 11253 ft | 310 kts | 89° |
| 2026-05-07 14:07 | 24.66732 | 102.53074 | 11069 ft | 301 kts | 89° |
| 2026-05-07 14:08 | 24.67034 | 102.55332 | 10993 ft | 300 kts | 71° |
| 2026-05-07 14:08 | 24.68066 | 102.57290 | 11007 ft | 297 kts | 49° |
| 2026-05-07 14:08 | 24.69462 | 102.58933 | 11003 ft | 292 kts | 40° |
| 2026-05-07 14:08 | 24.71010 | 102.60339 | 10994 ft | 288 kts | 30° |
| 2026-05-07 14:09 | 24.72749 | 102.61405 | 11010 ft | 287 kts | 21° |
| 2026-05-07 14:09 | 24.74558 | 102.62315 | 11020 ft | 285 kts | 19° |
| 2026-05-07 14:09 | 24.76351 | 102.63234 | 11007 ft | 285 kts | 20° |
| 2026-05-07 14:09 | 24.78118 | 102.64204 | 10981 ft | 284 kts | 23° |
| 2026-05-07 14:10 | 24.79797 | 102.65357 | 11001 ft | 286 kts | 30° |
| 2026-05-07 14:10 | 24.81399 | 102.66666 | 11008 ft | 288 kts | 33° |
| 2026-05-07 14:10 | 24.82971 | 102.68042 | 11005 ft | 289 kts | 34° |
| 2026-05-07 14:10 | 24.84537 | 102.69419 | 11004 ft | 289 kts | 34° |
| 2026-05-07 14:11 | 24.86113 | 102.70794 | 11006 ft | 289 kts | 34° |
| 2026-05-07 14:11 | 24.87664 | 102.72141 | 10991 ft | 275 kts | 35° |
| 2026-05-07 14:11 | 24.89139 | 102.73421 | 11029 ft | 269 kts | 35° |
| 2026-05-07 14:11 | 24.90597 | 102.74684 | 11007 ft | 266 kts | 35° |
| 2026-05-07 14:12 | 24.92040 | 102.75935 | 11028 ft | 261 kts | 34° |
| 2026-05-07 14:12 | 24.93432 | 102.77140 | 11030 ft | 250 kts | 34° |
| 2026-05-07 14:12 | 24.94753 | 102.78285 | 10901 ft | 232 kts | 35° |
| 2026-05-07 14:12 | 24.95979 | 102.79347 | 10543 ft | 216 kts | 35° |
| 2026-05-07 14:13 | 24.97129 | 102.80344 | 10235 ft | 207 kts | 34° |
| 2026-05-07 14:13 | 24.98247 | 102.81313 | 9970 ft | 203 kts | 33° |
| 2026-05-07 14:13 | 24.99346 | 102.82266 | 9703 ft | 199 kts | 33° |
| 2026-05-07 14:13 | 25.00418 | 102.83196 | 9443 ft | 195 kts | 33° |
| 2026-05-07 14:14 | 25.01476 | 102.84113 | 9184 ft | 191 kts | 34° |
| 2026-05-07 14:14 | 25.02508 | 102.85008 | 8935 ft | 187 kts | 34° |
| 2026-05-07 14:14 | 25.03522 | 102.85888 | 8688 ft | 184 kts | 34° |
| 2026-05-07 14:14 | 25.04515 | 102.86750 | 8447 ft | 181 kts | 35° |
| 2026-05-07 14:15 | 25.05487 | 102.87594 | 8214 ft | 176 kts | 36° |
| 2026-05-07 14:15 | 25.06441 | 102.88422 | 7970 ft | 172 kts | 36° |
| 2026-05-07 14:15 | 25.07374 | 102.89232 | 7757 ft | 170 kts | 37° |
| 2026-05-07 14:15 | 25.08290 | 102.90028 | 7527 ft | 168 kts | 37° |
| 2026-05-07 14:16 | 25.09203 | 102.90821 | 7307 ft | 168 kts | 38° |
| 2026-05-07 14:16 | 25.10130 | 102.91610 | 7027 ft | 168 kts | 38° |
| 2026-05-07 14:16 | 25.11025 | 102.92397 | 6936 ft | 156 kts | 38° |
| 2026-05-07 14:16 | 25.11814 | 102.93081 | 6917 ft | 124 kts | 43° |
| 2026-05-07 14:17 | 25.12261 | 102.93502 | 6916 ft | 34 kts | 63° |
| 2026-05-07 14:17 | 25.12275 | 102.93544 | 6916 ft | 0 kts | 91° |